CCA0830 ZLLL-ZSAM
Flight info
| Callsign | CCA0830 |
|---|---|
| Flight time | N/A |
| Altitude | 31100 |
| Route | UKBIN W214 HO W154 XODAS ZNX PIKEM TOGOG V111 DSY RUXIL WTM B213 WHA R343 SAGUD W50 XSH W105 NCH LEKUV TEBON |
| Aircraft | A320/L-V/N |
Departure
| Time | 2026-04-28 06:38 |
|---|---|
| Airport | Lanzhou Zhongchuan International Airport (ZLLL) |
Arrival
| Time | N/A |
|---|---|
| Airport | Xiamen Gaoqi International Airport (ZSAM) |
| Time | Latitude | Longitude | Altitude | Speed | Heading |
|---|---|---|---|---|---|
| 2026-04-28 06:13 | 36.52756 | 103.63914 | 6384 ft | 0 kts | 292° |
| 2026-04-28 06:24 | 36.52755 | 103.63916 | 6383 ft | 1 kts | 291° |
| 2026-04-28 06:24 | 36.52749 | 103.63936 | 6385 ft | 3 kts | 291° |
| 2026-04-28 06:24 | 36.52742 | 103.63958 | 6386 ft | 3 kts | 301° |
| 2026-04-28 06:24 | 36.52730 | 103.63978 | 6388 ft | 3 kts | 319° |
| 2026-04-28 06:25 | 36.52713 | 103.63992 | 6385 ft | 3 kts | 342° |
| 2026-04-28 06:25 | 36.52694 | 103.63996 | 6385 ft | 3 kts | 4° |
| 2026-04-28 06:25 | 36.52674 | 103.63992 | 6385 ft | 3 kts | 18° |
| 2026-04-28 06:25 | 36.52659 | 103.63985 | 6388 ft | 1 kts | 22° |
| 2026-04-28 06:26 | 36.52658 | 103.63985 | 6383 ft | 0 kts | 22° |
| 2026-04-28 06:28 | 36.52660 | 103.63985 | 6388 ft | 1 kts | 19° |
| 2026-04-28 06:28 | 36.52677 | 103.63993 | 6386 ft | 3 kts | 19° |
| 2026-04-28 06:28 | 36.52694 | 103.64008 | 6387 ft | 3 kts | 46° |
| 2026-04-28 06:28 | 36.52704 | 103.64031 | 6387 ft | 3 kts | 68° |
| 2026-04-28 06:29 | 36.52706 | 103.64060 | 6385 ft | 4 kts | 84° |
| 2026-04-28 06:29 | 36.52709 | 103.64100 | 6382 ft | 6 kts | 86° |
| 2026-04-28 06:29 | 36.52711 | 103.64161 | 6382 ft | 8 kts | 87° |
| 2026-04-28 06:29 | 36.52745 | 103.64199 | 6383 ft | 6 kts | 12° |
| 2026-04-28 06:30 | 36.52788 | 103.64197 | 6385 ft | 6 kts | 357° |
| 2026-04-28 06:30 | 36.52834 | 103.64194 | 6386 ft | 7 kts | 356° |
| 2026-04-28 06:30 | 36.52881 | 103.64191 | 6386 ft | 7 kts | 356° |
| 2026-04-28 06:30 | 36.52929 | 103.64187 | 6388 ft | 7 kts | 356° |
| 2026-04-28 06:31 | 36.52978 | 103.64184 | 6389 ft | 7 kts | 356° |
| 2026-04-28 06:31 | 36.53028 | 103.64180 | 6389 ft | 7 kts | 356° |
| 2026-04-28 06:31 | 36.53079 | 103.64176 | 6389 ft | 7 kts | 356° |
| 2026-04-28 06:31 | 36.53131 | 103.64172 | 6391 ft | 7 kts | 356° |
| 2026-04-28 06:32 | 36.53181 | 103.64169 | 6392 ft | 7 kts | 356° |
| 2026-04-28 06:32 | 36.53232 | 103.64168 | 6391 ft | 7 kts | 358° |
| 2026-04-28 06:32 | 36.53281 | 103.64166 | 6393 ft | 7 kts | 358° |
| 2026-04-28 06:32 | 36.53331 | 103.64164 | 6394 ft | 7 kts | 358° |
| 2026-04-28 06:33 | 36.53380 | 103.64160 | 6395 ft | 7 kts | 357° |
| 2026-04-28 06:33 | 36.53428 | 103.64156 | 6394 ft | 7 kts | 357° |
| 2026-04-28 06:33 | 36.53475 | 103.64153 | 6394 ft | 7 kts | 357° |
| 2026-04-28 06:33 | 36.53523 | 103.64150 | 6397 ft | 7 kts | 357° |
| 2026-04-28 06:34 | 36.53570 | 103.64147 | 6396 ft | 7 kts | 357° |
| 2026-04-28 06:34 | 36.53619 | 103.64144 | 6398 ft | 7 kts | 357° |
| 2026-04-28 06:34 | 36.53670 | 103.64140 | 6401 ft | 7 kts | 356° |
| 2026-04-28 06:34 | 36.53722 | 103.64135 | 6398 ft | 8 kts | 356° |
| 2026-04-28 06:35 | 36.53775 | 103.64131 | 6400 ft | 8 kts | 356° |
| 2026-04-28 06:35 | 36.53830 | 103.64133 | 6400 ft | 8 kts | 18° |
| 2026-04-28 06:35 | 36.53856 | 103.64179 | 6401 ft | 7 kts | 82° |
| 2026-04-28 06:35 | 36.53859 | 103.64242 | 6401 ft | 8 kts | 88° |
| 2026-04-28 06:36 | 36.53862 | 103.64316 | 6402 ft | 9 kts | 84° |
| 2026-04-28 06:36 | 36.53867 | 103.64399 | 6403 ft | 10 kts | 90° |
| 2026-04-28 06:36 | 36.53809 | 103.64427 | 6402 ft | 11 kts | 185° |
| 2026-04-28 06:36 | 36.53700 | 103.64439 | 6401 ft | 32 kts | 176° |
| 2026-04-28 06:37 | 36.53291 | 103.64459 | 6389 ft | 83 kts | 177° |
| 2026-04-28 06:37 | 36.52569 | 103.64504 | 6381 ft | 122 kts | 176° |
| 2026-04-28 06:37 | 36.51957 | 103.64545 | 6369 ft | 143 kts | 176° |
| 2026-04-28 06:37 | 36.50465 | 103.64642 | 6394 ft | 171 kts | 177° |
| 2026-04-28 06:38 | 36.49756 | 103.64708 | 6941 ft | 136 kts | 176° |
| 2026-04-28 06:38 | 36.48821 | 103.64815 | 7409 ft | 149 kts | 172° |
| 2026-04-28 06:38 | 36.47414 | 103.65014 | 8262 ft | 172 kts | 170° |
| 2026-04-28 06:38 | 36.46525 | 103.65155 | 8341 ft | 207 kts | 172° |
| 2026-04-28 06:39 | 36.44995 | 103.65225 | 8873 ft | 233 kts | 177° |
| 2026-04-28 06:39 | 36.42722 | 103.65235 | 9618 ft | 261 kts | 177° |
| 2026-04-28 06:39 | 36.40877 | 103.65279 | 10477 ft | 268 kts | 176° |
| 2026-04-28 06:39 | 36.39640 | 103.65331 | 11132 ft | 268 kts | 176° |
| 2026-04-28 06:40 | 36.37766 | 103.65430 | 12103 ft | 271 kts | 175° |
| 2026-04-28 06:40 | 36.35871 | 103.65544 | 13045 ft | 274 kts | 175° |
| 2026-04-28 06:40 | 36.33955 | 103.65665 | 13948 ft | 277 kts | 176° |
| 2026-04-28 06:40 | 36.32030 | 103.65957 | 14762 ft | 280 kts | 162° |
| 2026-04-28 06:41 | 36.30323 | 103.67132 | 15490 ft | 287 kts | 137° |
| 2026-04-28 06:41 | 36.29160 | 103.69161 | 16161 ft | 296 kts | 112° |
| 2026-04-28 06:41 | 36.28796 | 103.71688 | 16846 ft | 304 kts | 86° |
| 2026-04-28 06:41 | 36.29328 | 103.74230 | 17542 ft | 310 kts | 62° |
| 2026-04-28 06:42 | 36.30676 | 103.76321 | 18191 ft | 314 kts | 36° |
| 2026-04-28 06:42 | 36.32605 | 103.77559 | 18826 ft | 314 kts | 11° |
| 2026-04-28 06:42 | 36.34753 | 103.77715 | 19464 ft | 309 kts | 346° |
| 2026-04-28 06:42 | 36.36767 | 103.76863 | 20116 ft | 307 kts | 334° |
| 2026-04-28 06:43 | 36.38886 | 103.76336 | 20770 ft | 318 kts | 357° |
| 2026-04-28 06:43 | 36.41083 | 103.76881 | 21375 ft | 330 kts | 19° |
| 2026-04-28 06:43 | 36.43051 | 103.78453 | 21784 ft | 349 kts | 41° |
| 2026-04-28 06:43 | 36.44554 | 103.80938 | 21958 ft | 372 kts | 63° |
| 2026-04-28 06:44 | 36.45329 | 103.84077 | 22132 ft | 391 kts | 83° |
| 2026-04-28 06:44 | 36.45258 | 103.87508 | 22300 ft | 406 kts | 102° |
| 2026-04-28 06:44 | 36.44358 | 103.90834 | 22463 ft | 419 kts | 120° |
| 2026-04-28 06:44 | 36.42664 | 103.93864 | 22740 ft | 426 kts | 136° |
| 2026-04-28 06:45 | 36.40420 | 103.96160 | 23269 ft | 423 kts | 152° |
| 2026-04-28 06:45 | 36.37822 | 103.97885 | 23821 ft | 425 kts | 159° |
| 2026-04-28 06:45 | 36.35126 | 103.99433 | 24305 ft | 428 kts | 160° |
| 2026-04-28 06:45 | 36.32509 | 104.01274 | 24792 ft | 438 kts | 147° |
| 2026-04-28 06:46 | 36.30249 | 104.03872 | 25254 ft | 449 kts | 133° |
| 2026-04-28 06:46 | 36.28486 | 104.07117 | 25718 ft | 458 kts | 120° |
| 2026-04-28 06:46 | 36.27135 | 104.10725 | 26183 ft | 464 kts | 114° |
| 2026-04-28 06:46 | 36.25960 | 104.14462 | 26663 ft | 468 kts | 112° |
| 2026-04-28 06:47 | 36.24824 | 104.18256 | 27087 ft | 472 kts | 112° |
| 2026-04-28 06:47 | 36.23672 | 104.22083 | 27524 ft | 475 kts | 112° |
| 2026-04-28 06:47 | 36.22495 | 104.25929 | 27964 ft | 478 kts | 112° |
| 2026-04-28 06:47 | 36.21296 | 104.29790 | 28361 ft | 482 kts | 113° |
| 2026-04-28 06:48 | 36.20069 | 104.33615 | 28735 ft | 485 kts | 116° |
| 2026-04-28 06:48 | 36.18516 | 104.37322 | 29124 ft | 485 kts | 123° |
| 2026-04-28 06:48 | 36.16780 | 104.40929 | 29484 ft | 489 kts | 123° |
| 2026-04-28 06:48 | 36.15043 | 104.44556 | 29851 ft | 492 kts | 123° |
| 2026-04-28 06:49 | 36.13295 | 104.48209 | 30240 ft | 495 kts | 123° |
| 2026-04-28 06:49 | 36.11536 | 104.51887 | 30560 ft | 498 kts | 123° |
| 2026-04-28 06:49 | 36.09767 | 104.55582 | 30906 ft | 499 kts | 124° |
| 2026-04-28 06:49 | 36.07994 | 104.59284 | 31194 ft | 502 kts | 124° |
| 2026-04-28 06:50 | 36.06213 | 104.62996 | 31275 ft | 501 kts | 124° |
| 2026-04-28 06:50 | 36.02658 | 104.70395 | 31270 ft | 500 kts | 124° |
| 2026-04-28 06:51 | 35.99097 | 104.77787 | 31264 ft | 501 kts | 124° |
| 2026-04-28 06:51 | 35.95556 | 104.85122 | 31254 ft | 501 kts | 124° |
| 2026-04-28 06:52 | 35.91985 | 104.92502 | 31248 ft | 500 kts | 125° |
| 2026-04-28 06:52 | 35.88410 | 104.99879 | 31241 ft | 501 kts | 125° |
| 2026-04-28 06:53 | 35.84851 | 105.07271 | 31233 ft | 501 kts | 125° |
| 2026-04-28 06:53 | 35.81289 | 105.14655 | 31226 ft | 501 kts | 125° |
| 2026-04-28 06:54 | 35.77718 | 105.22034 | 31216 ft | 501 kts | 125° |
| 2026-04-28 06:54 | 35.74143 | 105.29406 | 31218 ft | 502 kts | 125° |
| 2026-04-28 06:55 | 35.70556 | 105.36785 | 31211 ft | 502 kts | 126° |
| 2026-04-28 06:55 | 35.66968 | 105.44152 | 31199 ft | 501 kts | 126° |
| 2026-04-28 06:56 | 35.63382 | 105.51500 | 31191 ft | 501 kts | 126° |
| 2026-04-28 06:56 | 35.59810 | 105.58799 | 31183 ft | 502 kts | 126° |
| 2026-04-28 06:57 | 35.56208 | 105.66149 | 31176 ft | 501 kts | 126° |
| 2026-04-28 06:57 | 35.53206 | 105.73915 | 31177 ft | 510 kts | 112° |
| 2026-04-28 06:58 | 35.51653 | 105.82474 | 31168 ft | 516 kts | 103° |
| 2026-04-28 06:58 | 35.50373 | 105.91146 | 31162 ft | 515 kts | 104° |
| 2026-04-28 06:59 | 35.49075 | 105.99784 | 31162 ft | 516 kts | 104° |
| 2026-04-28 06:59 | 35.47762 | 106.08460 | 31160 ft | 517 kts | 104° |
| 2026-04-28 07:00 | 35.46445 | 106.17123 | 31177 ft | 517 kts | 104° |
| 2026-04-28 07:00 | 35.45120 | 106.25795 | 31175 ft | 517 kts | 104° |
| 2026-04-28 07:01 | 35.43786 | 106.34486 | 31168 ft | 518 kts | 104° |
| 2026-04-28 07:01 | 35.42454 | 106.43114 | 31176 ft | 519 kts | 104° |
| 2026-04-28 07:02 | 35.41109 | 106.51797 | 31157 ft | 518 kts | 105° |
| 2026-04-28 07:02 | 35.39754 | 106.60483 | 31158 ft | 518 kts | 105° |
| 2026-04-28 07:03 | 35.38395 | 106.69169 | 31157 ft | 519 kts | 105° |
| 2026-04-28 07:03 | 35.37032 | 106.77842 | 31153 ft | 518 kts | 105° |
| 2026-04-28 07:04 | 35.35660 | 106.86515 | 31153 ft | 518 kts | 105° |
| 2026-04-28 07:04 | 35.34282 | 106.95188 | 31148 ft | 519 kts | 105° |
| 2026-04-28 07:05 | 35.32906 | 107.03848 | 31146 ft | 518 kts | 105° |
| 2026-04-28 07:05 | 35.31521 | 107.12548 | 31146 ft | 519 kts | 105° |
| 2026-04-28 07:06 | 35.30132 | 107.21228 | 31146 ft | 520 kts | 105° |
| 2026-04-28 07:06 | 35.28744 | 107.29863 | 31147 ft | 520 kts | 105° |
| 2026-04-28 07:07 | 35.27339 | 107.38552 | 31147 ft | 520 kts | 105° |
| 2026-04-28 07:07 | 35.25929 | 107.47237 | 31147 ft | 520 kts | 105° |
| 2026-04-28 07:08 | 35.24507 | 107.55927 | 31149 ft | 521 kts | 105° |
| 2026-04-28 07:08 | 35.23056 | 107.64612 | 31154 ft | 520 kts | 105° |
| 2026-04-28 07:09 | 35.21467 | 107.73234 | 31159 ft | 516 kts | 114° |
| 2026-04-28 07:09 | 35.20056 | 107.77224 | 31158 ft | 507 kts | 125° |
| 2026-04-28 07:09 | 35.18131 | 107.80779 | 31162 ft | 497 kts | 135° |
| 2026-04-28 07:10 | 35.13589 | 107.87079 | 31159 ft | 493 kts | 139° |
| 2026-04-28 07:10 | 35.09082 | 107.93300 | 31165 ft | 491 kts | 139° |
| 2026-04-28 07:11 | 35.04556 | 107.99540 | 31169 ft | 491 kts | 139° |
| 2026-04-28 07:11 | 35.00025 | 108.05774 | 31179 ft | 490 kts | 139° |
| 2026-04-28 07:12 | 34.95506 | 108.11982 | 31184 ft | 489 kts | 139° |
| 2026-04-28 07:12 | 34.90518 | 108.17369 | 31185 ft | 471 kts | 156° |
| 2026-04-28 07:12 | 34.87652 | 108.19194 | 31192 ft | 460 kts | 165° |
| 2026-04-28 07:13 | 34.84653 | 108.20491 | 31190 ft | 455 kts | 169° |
| 2026-04-28 07:13 | 34.78652 | 108.22928 | 31197 ft | 454 kts | 169° |
| 2026-04-28 07:14 | 34.72668 | 108.25377 | 31196 ft | 454 kts | 169° |
| 2026-04-28 07:14 | 34.66681 | 108.27824 | 31197 ft | 454 kts | 169° |
| 2026-04-28 07:15 | 34.60691 | 108.30267 | 31195 ft | 453 kts | 169° |
| 2026-04-28 07:15 | 34.54743 | 108.32689 | 31196 ft | 453 kts | 169° |
| 2026-04-28 07:16 | 34.48762 | 108.35120 | 31194 ft | 454 kts | 168° |
| 2026-04-28 07:16 | 34.42775 | 108.37552 | 31191 ft | 454 kts | 168° |
| 2026-04-28 07:17 | 34.36788 | 108.39978 | 31184 ft | 454 kts | 168° |
| 2026-04-28 07:17 | 34.30794 | 108.42404 | 31183 ft | 454 kts | 168° |
| 2026-04-28 07:18 | 34.24802 | 108.44827 | 31186 ft | 454 kts | 168° |
| 2026-04-28 07:18 | 34.18793 | 108.47252 | 31201 ft | 455 kts | 168° |
| 2026-04-28 07:19 | 34.12787 | 108.49674 | 31205 ft | 455 kts | 168° |
| 2026-04-28 07:19 | 34.06945 | 108.52826 | 31206 ft | 463 kts | 160° |
| 2026-04-28 07:20 | 34.01213 | 108.56271 | 31207 ft | 462 kts | 160° |
| 2026-04-28 07:20 | 33.95432 | 108.59722 | 31219 ft | 465 kts | 161° |
| 2026-04-28 07:21 | 33.89646 | 108.63173 | 31225 ft | 464 kts | 161° |
| 2026-04-28 07:21 | 33.83848 | 108.66625 | 31229 ft | 464 kts | 161° |
| 2026-04-28 07:22 | 33.75166 | 108.71779 | 31230 ft | 464 kts | 161° |
| 2026-04-28 07:22 | 33.69382 | 108.75207 | 31239 ft | 463 kts | 161° |
| 2026-04-28 07:23 | 33.63602 | 108.78629 | 31236 ft | 463 kts | 161° |
| 2026-04-28 07:23 | 33.57866 | 108.82043 | 31232 ft | 464 kts | 158° |
| 2026-04-28 07:24 | 33.55171 | 108.84255 | 31239 ft | 476 kts | 146° |
| 2026-04-28 07:24 | 33.52839 | 108.87141 | 31239 ft | 488 kts | 134° |
| 2026-04-28 07:24 | 33.50985 | 108.90594 | 31239 ft | 499 kts | 122° |
| 2026-04-28 07:24 | 33.49696 | 108.94482 | 31236 ft | 507 kts | 110° |
| 2026-04-28 07:25 | 33.48499 | 109.02877 | 31241 ft | 514 kts | 101° |
| 2026-04-28 07:25 | 33.47517 | 109.11364 | 31235 ft | 514 kts | 103° |
| 2026-04-28 07:26 | 33.46358 | 109.19790 | 31237 ft | 513 kts | 104° |
| 2026-04-28 07:26 | 33.45343 | 109.26772 | 31237 ft | 510 kts | 104° |
| 2026-04-28 07:27 | 33.44105 | 109.35207 | 31235 ft | 514 kts | 104° |
| 2026-04-28 07:27 | 33.42862 | 109.43639 | 31235 ft | 514 kts | 104° |
| 2026-04-28 07:28 | 33.41616 | 109.52064 | 31231 ft | 513 kts | 104° |